Time;durP1;ratioP1;P1;durP2;ratioP2;P2;SDS_P1;SDS_P2;PMS_P1;PMS_P2;Temp;Humidity;BMP_temperature;BMP_pressure;BME280_temperature;BME280_humidity;BME280_pressure;Samples;Min_cycle;Max_cycle;Signal;HPM_P1;HPM_P2
2023/09/29 00:00:41;;;;;;;0.40;0.40;;;15.80;99.90;;;;;;5115163;28;20122;-75
2023/09/29 00:03:08;;;;;;;0.93;0.85;;;15.80;99.90;;;;;;5116259;28;20190;-74
2023/09/29 00:05:34;;;;;;;0.30;0.30;;;15.70;99.90;;;;;;5116108;28;20079;-75
2023/09/29 00:08:00;;;;;;;0.40;0.40;;;15.70;99.90;;;;;;5116245;28;20087;-75
2023/09/29 00:10:25;;;;;;;0.20;0.20;;;15.80;99.90;;;;;;5116033;28;20124;-74
2023/09/29 00:12:51;;;;;;;0.30;0.30;;;15.70;99.90;;;;;;5115851;28;20053;-74
2023/09/29 00:15:18;;;;;;;0.37;0.37;;;15.80;99.90;;;;;;5115864;28;20043;-74
2023/09/29 00:17:45;;;;;;;0.35;0.35;;;15.70;99.90;;;;;;5115826;28;20036;-74
2023/09/29 00:22:43;;;;;;;0.30;0.30;;;15.80;99.90;;;;;;5115756;28;20490;-75
2023/09/29 00:25:09;;;;;;;0.40;0.40;;;15.70;99.90;;;;;;5115965;28;20048;-75
2023/09/29 00:27:35;;;;;;;0.30;0.30;;;15.70;99.90;;;;;;5115674;27;20534;-74
2023/09/29 00:30:02;;;;;;;0.40;0.40;;;15.70;99.90;;;;;;5115551;28;20173;-74
2023/09/29 00:32:28;;;;;;;0.40;0.30;;;15.60;99.90;;;;;;5115477;28;20047;-74
2023/09/29 00:34:56;;;;;;;0.95;0.75;;;15.60;99.90;;;;;;5115486;28;20054;-76
2023/09/29 00:37:23;;;;;;;0.35;0.30;;;15.60;99.90;;;;;;5115447;28;20055;-77
2023/09/29 00:39:48;;;;;;;1.85;0.40;;;15.60;99.90;;;;;;5115440;28;20036;-75
2023/09/29 00:42:14;;;;;;;0.83;0.70;;;15.70;99.90;;;;;;5115380;28;20054;-76
2023/09/29 00:44:39;;;;;;;0.30;0.30;;;15.70;99.90;;;;;;5115240;28;20054;-75
2023/09/29 00:47:06;;;;;;;0.20;0.20;;;15.60;99.90;;;;;;5115312;28;20130;-76
2023/09/29 00:49:32;;;;;;;0.40;0.40;;;15.70;99.90;;;;;;5115276;28;20049;-74
2023/09/29 00:52:00;;;;;;;0.50;0.50;;;15.70;99.90;;;;;;5115359;28;20042;-73
2023/09/29 00:54:29;;;;;;;0.40;0.40;;;15.70;99.90;;;;;;5115160;28;20044;-74
2023/09/29 00:56:59;;;;;;;0.35;0.35;;;15.70;99.90;;;;;;5115118;28;20114;-76
2023/09/29 00:59:26;;;;;;;0.38;0.38;;;15.70;99.90;;;;;;5115445;28;20147;-75
2023/09/29 01:01:52;;;;;;;0.30;0.30;;;15.70;99.90;;;;;;5115019;28;20051;-74
2023/09/29 01:04:18;;;;;;;0.70;0.50;;;15.70;99.90;;;;;;5114946;28;20119;-75
2023/09/29 01:06:45;;;;;;;0.43;0.43;;;15.70;99.90;;;;;;5114915;28;20047;-74
2023/09/29 01:09:12;;;;;;;0.38;0.38;;;15.70;99.90;;;;;;5114398;28;20436;-75
2023/09/29 01:11:44;;;;;;;0.30;0.30;;;15.70;99.90;;;;;;5114838;28;20530;-74
2023/09/29 01:14:11;;;;;;;0.38;0.38;;;15.70;99.90;;;;;;5113288;28;20032;-76
2023/09/29 01:16:41;;;;;;;0.40;0.40;;;15.70;99.90;;;;;;5114751;28;20044;-74
2023/09/29 01:19:14;;;;;;;0.60;0.60;;;15.70;99.90;;;;;;5114670;28;20035;-74
2023/09/29 01:21:44;;;;;;;1.35;0.80;;;15.80;99.90;;;;;;5114704;28;20079;-74
2023/09/29 01:24:10;;;;;;;0.30;0.30;;;15.80;99.90;;;;;;5114504;28;20084;-74
2023/09/29 01:26:35;;;;;;;0.50;0.50;;;15.70;99.90;;;;;;5115004;28;20134;-74
2023/09/29 01:29:01;;;;;;;0.30;0.30;;;15.70;99.90;;;;;;5114791;28;20044;-74
2023/09/29 01:31:27;;;;;;;2.00;0.57;;;15.70;99.90;;;;;;5114504;27;20046;-75
2023/09/29 01:33:52;;;;;;;0.40;0.40;;;15.80;99.90;;;;;;5114399;28;20371;-74
2023/09/29 01:36:18;;;;;;;0.50;0.50;;;15.70;99.90;;;;;;5112904;28;20509;-75
2023/09/29 01:38:45;;;;;;;0.40;0.40;;;15.80;99.90;;;;;;5114120;28;20077;-76
2023/09/29 01:41:13;;;;;;;0.60;0.57;;;15.70;99.90;;;;;;5112754;28;20528;-75
2023/09/29 01:43:39;;;;;;;0.40;0.40;;;15.70;99.90;;;;;;5114218;28;20040;-75
2023/09/29 01:46:07;;;;;;;0.30;0.30;;;15.80;99.90;;;;;;5114308;28;20047;-75
2023/09/29 01:48:33;;;;;;;0.40;0.40;;;15.80;99.90;;;;;;5114224;28;20047;-76
2023/09/29 01:51:02;;;;;;;1.90;1.27;;;15.80;99.90;;;;;;5114221;28;20054;-73
2023/09/29 01:53:30;;;;;;;0.40;0.40;;;15.80;99.90;;;;;;5114060;28;20115;-75
2023/09/29 01:55:56;;;;;;;0.43;0.43;;;15.80;99.90;;;;;;5113783;28;20040;-75
2023/09/29 01:58:22;;;;;;;0.20;0.20;;;15.80;99.90;;;;;;5114348;28;20043;-74
2023/09/29 02:00:49;;;;;;;0.30;0.30;;;15.80;99.90;;;;;;5113982;28;20047;-76
2023/09/29 02:03:15;;;;;;;;;;;15.80;99.90;;;;;;5114445;28;20046;-74
2023/09/29 02:05:41;;;;;;;0.52;0.52;;;15.80;99.90;;;;;;5114030;28;20002;-75
2023/09/29 02:08:07;;;;;;;0.50;0.50;;;15.80;99.90;;;;;;5113928;28;20047;-74
2023/09/29 02:10:33;;;;;;;0.38;0.38;;;15.80;99.90;;;;;;5114000;28;20040;-73
2023/09/29 02:12:59;;;;;;;1.80;1.10;;;15.80;99.90;;;;;;5113865;28;20042;-76
2023/09/29 02:15:27;;;;;;;0.38;0.38;;;15.80;99.90;;;;;;5113899;28;20455;-76
2023/09/29 02:17:53;;;;;;;0.30;0.30;;;15.80;99.90;;;;;;5112726;28;20134;-74
2023/09/29 02:20:28;;;;;;;0.57;0.47;;;15.80;99.90;;;;;;5114591;28;20126;-76
2023/09/29 02:22:58;;;;;;;0.40;0.40;;;15.80;99.90;;;;;;5116815;28;20055;-74
2023/09/29 02:25:26;;;;;;;0.65;0.50;;;15.80;99.90;;;;;;5118547;28;20363;-76
2023/09/29 02:27:56;;;;;;;0.30;0.30;;;15.80;99.90;;;;;;5118013;28;20076;-75
2023/09/29 02:30:24;;;;;;;0.30;0.30;;;15.80;99.90;;;;;;5118019;28;20040;-76
2023/09/29 02:32:52;;;;;;;0.30;0.30;;;15.80;99.90;;;;;;5117823;28;20043;-75
2023/09/29 02:35:17;;;;;;;0.57;0.57;;;15.80;99.90;;;;;;5117842;28;20054;-75
2023/09/29 02:37:43;;;;;;;0.60;0.60;;;15.80;99.90;;;;;;5118336;28;20043;-74
2023/09/29 02:40:13;;;;;;;0.33;0.33;;;15.80;99.90;;;;;;5117832;28;20039;-73
2023/09/29 02:42:39;;;;;;;0.40;0.40;;;15.80;99.90;;;;;;5117452;28;20049;-76
2023/09/29 02:45:06;;;;;;;0.60;0.60;;;15.80;99.90;;;;;;5117692;27;20046;-74
2023/09/29 02:47:32;;;;;;;0.40;0.40;;;15.80;99.90;;;;;;5117534;28;20050;-74
2023/09/29 02:49:58;;;;;;;0.70;0.50;;;15.90;99.90;;;;;;5117529;28;20379;-75
2023/09/29 02:52:26;;;;;;;0.50;0.50;;;15.80;99.90;;;;;;5117561;28;20032;-75
2023/09/29 02:54:53;;;;;;;0.70;0.70;;;15.80;99.90;;;;;;5117842;28;20099;-74
2023/09/29 02:57:20;;;;;;;0.50;0.50;;;15.80;99.90;;;;;;5117431;28;20097;-74
2023/09/29 02:59:46;;;;;;;0.38;0.38;;;15.80;99.90;;;;;;5117620;28;20386;-74
2023/09/29 03:02:12;;;;;;;0.53;0.50;;;15.80;99.90;;;;;;5117274;28;20039;-75
2023/09/29 03:04:39;;;;;;;1.00;0.93;;;15.80;99.90;;;;;;5116968;28;20035;-74
2023/09/29 03:07:09;;;;;;;0.73;0.73;;;15.90;99.90;;;;;;5117700;28;20039;-75
2023/09/29 03:09:36;;;;;;;0.40;0.40;;;15.80;99.90;;;;;;5117167;28;20052;-74
2023/09/29 03:12:02;;;;;;;0.30;0.30;;;15.90;99.90;;;;;;5117439;28;20047;-75
2023/09/29 03:14:27;;;;;;;0.30;0.30;;;15.80;99.90;;;;;;5117025;28;20494;-74
2023/09/29 03:16:54;;;;;;;0.40;0.40;;;15.90;99.90;;;;;;5117205;28;20278;-74
2023/09/29 03:19:20;;;;;;;0.87;0.70;;;15.90;99.90;;;;;;5116730;28;20471;-75
2023/09/29 03:21:46;;;;;;;0.40;0.40;;;15.90;99.90;;;;;;5116173;28;20383;-75
2023/09/29 03:24:13;;;;;;;0.60;0.60;;;15.90;99.90;;;;;;5116824;28;20096;-75
2023/09/29 03:26:38;;;;;;;1.40;1.30;;;15.80;99.90;;;;;;5115818;28;20031;-75
2023/09/29 03:29:04;;;;;;;0.47;0.40;;;15.90;99.90;;;;;;5116791;28;20039;-75
2023/09/29 03:31:29;;;;;;;0.87;0.67;;;15.90;99.90;;;;;;5116179;28;20075;-74
2023/09/29 03:33:55;;;;;;;0.30;0.30;;;15.90;99.90;;;;;;5116692;28;20433;-75
2023/09/29 03:36:21;;;;;;;3.83;0.87;;;15.90;99.90;;;;;;5116633;28;20135;-75
2023/09/29 03:38:47;;;;;;;0.70;0.50;;;15.90;99.90;;;;;;5116930;28;20126;-75
2023/09/29 03:41:13;;;;;;;0.67;0.63;;;16.00;99.90;;;;;;5116641;28;20047;-74
2023/09/29 03:43:39;;;;;;;0.50;0.50;;;16.00;99.90;;;;;;5116706;28;20040;-75
2023/09/29 03:46:06;;;;;;;0.50;0.50;;;15.90;99.90;;;;;;5116574;28;20035;-74
2023/09/29 03:48:32;;;;;;;0.65;0.60;;;16.00;99.90;;;;;;5116382;28;20467;-75
2023/09/29 03:50:58;;;;;;;1.23;0.80;;;16.00;99.90;;;;;;5116359;28;20092;-76
2023/09/29 03:53:28;;;;;;;0.60;0.60;;;16.00;99.90;;;;;;5116285;28;20043;-76
2023/09/29 03:55:54;;;;;;;0.50;0.50;;;16.00;99.90;;;;;;5116367;28;20474;-74
2023/09/29 03:58:20;;;;;;;0.70;0.70;;;16.00;99.90;;;;;;5116277;28;20096;-73
2023/09/29 04:00:45;;;;;;;0.60;0.50;;;16.00;99.90;;;;;;5116325;28;20076;-74
2023/09/29 04:03:11;;;;;;;0.40;0.40;;;16.00;99.90;;;;;;5116151;28;20036;-75
2023/09/29 04:05:36;;;;;;;1.40;0.60;;;16.00;99.90;;;;;;5116114;28;20463;-73
2023/09/29 04:08:03;;;;;;;0.30;0.30;;;16.00;99.90;;;;;;5116051;28;20059;-75
2023/09/29 04:10:28;;;;;;;0.30;0.30;;;16.00;99.90;;;;;;5116125;28;20048;-75
2023/09/29 04:12:54;;;;;;;1.37;0.80;;;16.00;99.90;;;;;;5115558;28;20043;-74
2023/09/29 04:15:20;;;;;;;0.50;0.37;;;16.00;99.90;;;;;;5115930;28;20068;-77
2023/09/29 04:17:46;;;;;;;0.40;0.40;;;16.00;99.90;;;;;;5115887;28;20042;-74
2023/09/29 04:20:13;;;;;;;1.30;0.90;;;16.00;99.90;;;;;;5116318;28;20101;-74
2023/09/29 04:22:38;;;;;;;1.63;0.60;;;16.00;99.90;;;;;;5115814;28;20281;-75
2023/09/29 04:25:09;;;;;;;0.30;0.30;;;15.90;99.90;;;;;;5116199;28;20032;-75
2023/09/29 04:27:35;;;;;;;0.68;0.60;;;15.90;99.90;;;;;;5115815;28;20380;-74
2023/09/29 04:30:04;;;;;;;0.73;0.73;;;15.90;99.90;;;;;;5115713;28;20040;-75
2023/09/29 04:32:29;;;;;;;2.17;0.50;;;16.00;99.90;;;;;;5115498;27;20046;-75
2023/09/29 04:34:55;;;;;;;0.60;0.60;;;16.00;99.90;;;;;;5115517;28;20047;-76
2023/09/29 04:37:21;;;;;;;0.70;0.70;;;16.00;99.90;;;;;;5115716;28;20047;-74
2023/09/29 04:39:46;;;;;;;0.50;0.50;;;16.00;99.90;;;;;;5115928;28;20114;-75
2023/09/29 04:42:12;;;;;;;0.83;0.60;;;16.00;99.90;;;;;;5115391;28;20463;-75
2023/09/29 04:44:38;;;;;;;0.70;0.50;;;16.00;99.90;;;;;;5114493;28;20043;-74
2023/09/29 04:47:04;;;;;;;0.30;0.30;;;16.00;99.90;;;;;;5115303;28;20118;-74
2023/09/29 04:49:30;;;;;;;0.40;0.40;;;15.90;99.90;;;;;;5115177;28;20135;-74
2023/09/29 04:51:55;;;;;;;0.47;0.47;;;16.00;99.90;;;;;;5115257;28;20078;-75
2023/09/29 04:54:21;;;;;;;0.30;0.30;;;16.00;99.90;;;;;;5115040;28;20122;-75
2023/09/29 04:56:46;;;;;;;0.30;0.30;;;16.00;99.90;;;;;;5115357;28;20042;-74
2023/09/29 04:59:12;;;;;;;0.30;0.30;;;16.00;99.90;;;;;;5114760;28;20042;-74
2023/09/29 05:01:38;;;;;;;0.37;0.37;;;16.10;99.90;;;;;;5115072;28;20031;-75
2023/09/29 05:04:04;;;;;;;0.40;0.40;;;16.00;99.90;;;;;;5115104;28;20475;-75
2023/09/29 05:06:29;;;;;;;0.60;0.53;;;16.00;99.90;;;;;;5115323;28;20088;-74
2023/09/29 05:08:56;;;;;;;0.47;0.47;;;16.00;99.90;;;;;;5114944;28;20104;-74
2023/09/29 05:11:25;;;;;;;0.38;0.38;;;16.00;99.90;;;;;;5114798;28;20417;-76
2023/09/29 05:13:52;;;;;;;0.40;0.40;;;16.00;99.90;;;;;;5114730;28;20043;-74
2023/09/29 05:16:18;;;;;;;;;;;16.00;99.90;;;;;;5115246;28;20081;-74
2023/09/29 05:18:44;;;;;;;0.50;0.50;;;16.10;99.90;;;;;;5114656;28;19920;-74
2023/09/29 05:21:11;;;;;;;0.95;0.50;;;16.10;99.90;;;;;;5114902;28;20040;-75
2023/09/29 05:23:37;;;;;;;0.32;0.32;;;16.10;99.90;;;;;;5114615;28;20040;-75
2023/09/29 05:26:07;;;;;;;0.50;0.50;;;16.10;99.90;;;;;;5114531;28;20078;-76
2023/09/29 05:28:34;;;;;;;0.68;0.68;;;16.10;99.90;;;;;;5114866;28;20061;-75
2023/09/29 05:31:00;;;;;;;0.30;0.30;;;16.10;99.90;;;;;;5114463;28;20054;-75
2023/09/29 05:33:26;;;;;;;0.73;0.73;;;16.10;99.90;;;;;;5114171;28;20477;-73
2023/09/29 05:35:51;;;;;;;0.30;0.30;;;16.10;99.90;;;;;;5114439;28;20047;-75
2023/09/29 05:38:18;;;;;;;0.40;0.40;;;16.10;99.90;;;;;;5114611;28;20039;-74
2023/09/29 05:40:49;;;;;;;0.38;0.38;;;16.10;99.90;;;;;;5114424;28;20047;-74
2023/09/29 05:43:16;;;;;;;0.50;0.50;;;16.20;99.90;;;;;;5114464;28;20040;-74
2023/09/29 05:45:42;;;;;;;1.30;0.82;;;16.10;99.90;;;;;;5114226;28;20375;-74
2023/09/29 05:48:08;;;;;;;0.40;0.40;;;16.00;99.90;;;;;;5114300;28;20039;-75
2023/09/29 05:50:34;;;;;;;0.40;0.40;;;16.20;99.90;;;;;;5114704;28;20112;-75
2023/09/29 05:53:00;;;;;;;0.75;0.55;;;16.20;99.90;;;;;;5114119;28;20625;-73
2023/09/29 05:55:26;;;;;;;0.50;0.50;;;16.20;99.90;;;;;;5113970;28;20036;-73
2023/09/29 05:57:52;;;;;;;0.40;0.40;;;16.20;99.90;;;;;;5114147;28;20411;-74
2023/09/29 06:00:18;;;;;;;0.37;0.37;;;16.20;99.90;;;;;;5114000;28;20082;-76
2023/09/29 06:02:46;;;;;;;0.70;0.35;;;16.20;99.90;;;;;;5114025;28;20040;-75
2023/09/29 06:05:12;;;;;;;0.50;0.50;;;16.10;99.90;;;;;;5114020;28;20047;-74
2023/09/29 06:07:37;;;;;;;0.43;0.43;;;16.20;99.90;;;;;;5114133;28;20524;-74
2023/09/29 06:10:04;;;;;;;0.40;0.40;;;16.30;99.90;;;;;;5114213;28;20048;-75
2023/09/29 06:12:30;;;;;;;0.40;0.40;;;16.30;99.90;;;;;;5114092;28;20035;-74
2023/09/29 06:14:56;;;;;;;0.47;0.43;;;16.30;99.90;;;;;;5113476;28;20086;-73
2023/09/29 06:17:22;;;;;;;0.50;0.40;;;16.30;99.90;;;;;;5113936;28;20035;-74
2023/09/29 06:19:48;;;;;;;0.40;0.40;;;16.30;99.90;;;;;;5114257;28;20043;-73
2023/09/29 06:22:14;;;;;;;0.52;0.52;;;16.40;99.90;;;;;;5113951;28;20039;-76
2023/09/29 06:24:40;;;;;;;0.50;0.50;;;16.30;99.90;;;;;;5113822;28;20085;-76
2023/09/29 06:27:05;;;;;;;0.50;0.50;;;16.30;99.90;;;;;;5113824;28;20119;-74
2023/09/29 06:29:31;;;;;;;0.63;0.50;;;16.40;99.90;;;;;;5113803;28;20054;-76
2023/09/29 06:31:56;;;;;;;0.40;0.40;;;16.40;99.90;;;;;;5113114;28;20463;-74
2023/09/29 06:34:22;;;;;;;0.30;0.30;;;16.40;99.90;;;;;;5113892;28;20447;-75
2023/09/29 06:36:48;;;;;;;0.20;0.20;;;16.40;99.90;;;;;;5114076;28;20046;-74
2023/09/29 06:39:14;;;;;;;0.60;0.50;;;16.50;99.90;;;;;;5113739;28;20065;-75
2023/09/29 06:41:40;;;;;;;0.33;0.33;;;16.50;99.90;;;;;;5113669;28;20045;-75
2023/09/29 06:44:05;;;;;;;0.30;0.30;;;16.50;99.90;;;;;;5113659;28;20047;-75
2023/09/29 06:46:31;;;;;;;0.43;0.40;;;16.60;99.90;;;;;;5113909;28;20097;-75
2023/09/29 06:48:58;;;;;;;0.30;0.30;;;16.60;99.90;;;;;;5114093;28;20042;-74
2023/09/29 06:51:23;;;;;;;0.32;0.32;;;16.60;99.90;;;;;;5113926;28;20040;-74
2023/09/29 06:53:49;;;;;;;0.50;0.50;;;16.60;99.90;;;;;;5113531;28;20044;-74
2023/09/29 06:56:14;;;;;;;0.57;0.50;;;16.70;99.90;;;;;;5113532;28;20478;-76
2023/09/29 06:58:40;;;;;;;0.50;0.50;;;16.70;99.90;;;;;;5113531;28;20078;-74
2023/09/29 07:01:06;;;;;;;0.60;0.60;;;16.70;99.90;;;;;;5113167;28;20054;-73
2023/09/29 07:03:31;;;;;;;0.37;0.37;;;16.70;99.90;;;;;;5113899;28;20042;-76
2023/09/29 07:06:01;;;;;;;0.30;0.30;;;16.70;99.90;;;;;;5113860;28;20074;-73
2023/09/29 07:08:27;;;;;;;0.63;0.50;;;16.70;99.90;;;;;;5117129;28;20476;-75
2023/09/29 07:10:54;;;;;;;0.50;0.50;;;16.80;99.90;;;;;;5117003;28;20493;-76
2023/09/29 07:13:20;;;;;;;;;;;16.80;99.90;;;;;;5117397;28;20047;-74
2023/09/29 07:15:46;;;;;;;0.50;0.50;;;16.70;99.90;;;;;;5117178;28;19915;-74
2023/09/29 07:18:13;;;;;;;0.30;0.30;;;16.80;99.90;;;;;;5117174;28;20054;-74
2023/09/29 07:20:41;;;;;;;1.35;0.50;;;16.80;99.90;;;;;;5117106;28;20039;-75
2023/09/29 07:23:08;;;;;;;0.43;0.43;;;16.80;99.90;;;;;;5116101;28;20051;-74
2023/09/29 07:25:35;;;;;;;;;;;16.80;99.90;;;;;;5117365;28;20160;-75
2023/09/29 07:28:01;;;;;;;0.43;0.43;;;16.80;99.90;;;;;;5116989;28;19915;-75
2023/09/29 07:30:26;;;;;;;2.43;0.50;;;16.90;99.90;;;;;;5115659;28;20495;-74
2023/09/29 07:32:52;;;;;;;0.40;0.40;;;16.90;99.90;;;;;;5116557;28;20028;-76
2023/09/29 07:35:18;;;;;;;0.73;0.73;;;16.90;99.90;;;;;;5116861;28;20035;-73
2023/09/29 07:37:44;;;;;;;0.40;0.40;;;16.90;99.90;;;;;;5116942;28;20081;-76
2023/09/29 07:40:10;;;;;;;1.00;0.63;;;17.00;99.90;;;;;;5116807;28;20463;-73
2023/09/29 07:42:36;;;;;;;0.55;0.40;;;17.00;99.90;;;;;;5116696;28;20118;-74
2023/09/29 07:45:01;;;;;;;0.30;0.30;;;17.00;99.90;;;;;;5117273;28;20435;-73
2023/09/29 07:47:27;;;;;;;1.70;1.03;;;17.20;99.90;;;;;;5116361;28;20040;-74
2023/09/29 07:49:52;;;;;;;0.30;0.30;;;17.20;99.90;;;;;;5116770;28;20036;-73
2023/09/29 07:52:18;;;;;;;0.50;0.40;;;17.30;99.90;;;;;;5116440;28;20047;-76
2023/09/29 07:54:44;;;;;;;0.30;0.30;;;17.40;99.90;;;;;;5116569;28;20474;-74
2023/09/29 07:57:09;;;;;;;0.50;0.40;;;17.50;99.90;;;;;;5116398;28;20035;-74
2023/09/29 07:59:35;;;;;;;0.57;0.57;;;17.50;99.90;;;;;;5116205;28;20039;-74
2023/09/29 08:02:01;;;;;;;0.77;0.70;;;17.60;99.90;;;;;;5115047;28;20038;-74
2023/09/29 08:04:26;;;;;;;1.23;0.60;;;17.60;99.90;;;;;;5116218;28;20036;-76
2023/09/29 08:06:52;;;;;;;0.20;0.20;;;17.60;99.90;;;;;;5116200;28;20386;-74
2023/09/29 08:09:18;;;;;;;0.30;0.30;;;17.60;99.90;;;;;;5116115;28;20532;-75
2023/09/29 08:11:44;;;;;;;0.70;0.70;;;17.60;99.90;;;;;;5116490;28;20047;-75
2023/09/29 08:14:10;;;;;;;0.60;0.53;;;17.70;99.90;;;;;;5115985;28;20549;-76
2023/09/29 08:16:38;;;;;;;0.40;0.40;;;17.70;99.90;;;;;;5116030;28;20072;-76
2023/09/29 08:19:05;;;;;;;0.20;0.20;;;17.70;99.90;;;;;;5115878;28;20031;-76
2023/09/29 08:21:33;;;;;;;0.43;0.43;;;17.80;99.90;;;;;;5115888;28;20048;-75
2023/09/29 08:24:02;;;;;;;0.30;0.30;;;17.90;99.90;;;;;;5115818;28;20047;-74
2023/09/29 08:26:29;;;;;;;0.30;0.30;;;18.00;99.90;;;;;;5115784;28;20047;-77
2023/09/29 08:28:56;;;;;;;0.30;0.30;;;18.00;99.90;;;;;;5116100;28;20047;-75
2023/09/29 08:31:22;;;;;;;0.30;0.30;;;18.10;99.90;;;;;;5116022;28;20053;-76
2023/09/29 08:33:48;;;;;;;0.40;0.40;;;18.10;99.90;;;;;;5115563;28;20036;-75
2023/09/29 08:36:13;;;;;;;0.73;0.65;;;18.20;99.90;;;;;;5115550;28;20039;-75
2023/09/29 08:38:39;;;;;;;0.40;0.40;;;18.30;99.90;;;;;;5115498;28;20042;-74
2023/09/29 08:41:05;;;;;;;1.03;0.40;;;18.40;99.90;;;;;;5115546;27;20035;-74
2023/09/29 08:43:32;;;;;;;0.30;0.30;;;18.50;99.90;;;;;;5115321;28;20152;-74
2023/09/29 08:45:59;;;;;;;1.23;1.13;;;18.60;99.90;;;;;;5115440;28;20040;-76
2023/09/29 08:48:31;;;;;;;0.30;0.30;;;18.70;99.90;;;;;;5115340;28;20046;-75
2023/09/29 08:51:01;;;;;;;0.30;0.30;;;18.90;99.90;;;;;;5115581;28;20036;-75
2023/09/29 08:53:28;;;;;;;1.38;0.55;;;18.90;99.90;;;;;;5115175;28;20454;-74
2023/09/29 08:55:55;;;;;;;0.50;0.50;;;19.10;99.90;;;;;;5115087;28;20083;-74
2023/09/29 08:58:23;;;;;;;2.47;0.47;;;19.20;99.90;;;;;;5115583;28;20406;-74
2023/09/29 09:00:50;;;;;;;0.30;0.30;;;19.30;99.90;;;;;;5115111;28;20078;-74
2023/09/29 09:03:16;;;;;;;;;;;19.40;99.90;;;;;;5115562;28;20036;-73
2023/09/29 09:05:41;;;;;;;1.17;0.45;;;19.50;99.90;;;;;;5115320;28;19983;-74
2023/09/29 09:08:07;;;;;;;0.97;0.63;;;19.60;99.90;;;;;;5114983;28;20538;-74
2023/09/29 09:10:34;;;;;;;0.47;0.47;;;19.70;99.90;;;;;;5114902;28;20036;-73
2023/09/29 09:13:05;;;;;;;0.30;0.30;;;19.80;99.90;;;;;;5114730;28;20032;-74
2023/09/29 09:15:31;;;;;;;0.30;0.30;;;19.90;99.90;;;;;;5114889;28;20143;-73
2023/09/29 09:17:58;;;;;;;0.30;0.30;;;20.00;99.90;;;;;;5113455;28;20064;-74
2023/09/29 09:20:24;;;;;;;0.40;0.30;;;20.10;99.90;;;;;;5114935;28;20112;-73
2023/09/29 09:22:58;;;;;;;0.20;0.20;;;20.20;99.90;;;;;;5114747;28;20040;-73
2023/09/29 09:25:35;;;;;;;0.25;0.25;;;20.20;99.90;;;;;;5114708;28;20046;-75
2023/09/29 09:28:02;;;;;;;0.20;0.20;;;20.30;99.90;;;;;;5114645;28;20039;-74
2023/09/29 09:30:28;;;;;;;0.32;0.32;;;20.30;99.90;;;;;;5114170;27;20040;-75
2023/09/29 09:32:54;;;;;;;0.30;0.30;;;20.30;99.90;;;;;;5114546;28;20152;-73
2023/09/29 09:35:27;;;;;;;0.90;0.90;;;20.30;99.90;;;;;;5113299;28;20043;-74
2023/09/29 09:37:53;;;;;;;0.43;0.43;;;20.40;99.90;;;;;;5114684;28;20032;-73
2023/09/29 09:40:19;;;;;;;0.30;0.30;;;20.50;99.90;;;;;;5114428;28;20127;-73
2023/09/29 09:42:46;;;;;;;;;;;20.60;99.90;;;;;;5114778;28;20040;-73
2023/09/29 09:45:13;;;;;;;0.40;0.40;;;20.70;99.90;;;;;;5114069;28;20454;-75
2023/09/29 09:47:40;;;;;;;0.30;0.30;;;20.80;99.90;;;;;;5114288;28;20047;-73
2023/09/29 09:50:09;;;;;;;0.20;0.20;;;20.90;99.90;;;;;;5114367;28;20085;-73
2023/09/29 09:52:35;;;;;;;0.30;0.30;;;20.90;99.90;;;;;;5114157;28;20046;-73
2023/09/29 09:55:11;;;;;;;1.10;1.00;;;20.90;99.90;;;;;;5113946;28;20040;-75
2023/09/29 09:57:38;;;;;;;0.25;0.25;;;21.00;99.90;;;;;;5114197;28;20063;-74
2023/09/29 10:00:10;;;;;;;0.30;0.30;;;21.20;99.90;;;;;;5114073;28;20046;-74
2023/09/29 10:02:45;;;;;;;0.30;0.30;;;21.30;99.90;;;;;;5114119;28;20058;-75
2023/09/29 10:05:22;;;;;;;0.30;0.30;;;21.40;99.90;;;;;;5114191;28;20423;-74
2023/09/29 10:08:01;;;;;;;0.20;0.20;;;21.50;99.90;;;;;;5114105;28;20470;-74
2023/09/29 10:10:31;;;;;;;0.30;0.30;;;21.50;99.90;;;;;;5114155;28;20112;-74
2023/09/29 10:12:58;;;;;;;0.20;0.20;;;21.50;99.90;;;;;;5114131;28;20047;-75
2023/09/29 10:15:29;;;;;;;0.47;0.47;;;21.50;99.90;;;;;;5113922;28;20349;-74
2023/09/29 10:17:57;;;;;;;0.30;0.30;;;21.50;99.90;;;;;;5114022;28;20153;-74
2023/09/29 10:20:24;;;;;;;0.30;0.30;;;21.50;99.90;;;;;;5113971;28;20118;-73
2023/09/29 10:23:01;;;;;;;0.50;0.30;;;21.50;99.90;;;;;;5113961;28;20471;-72
2023/09/29 10:25:26;;;;;;;0.30;0.30;;;21.50;99.90;;;;;;5114004;28;20046;-74
2023/09/29 10:28:06;;;;;;;0.60;0.60;;;21.50;99.90;;;;;;5113888;28;20043;-75
2023/09/29 10:30:33;;;;;;;0.47;0.47;;;21.50;99.90;;;;;;5114130;28;20071;-74
2023/09/29 10:33:13;;;;;;;0.20;0.20;;;21.50;99.90;;;;;;5113894;28;20050;-73
2023/09/29 10:35:44;;;;;;;0.30;0.30;;;21.50;99.90;;;;;;5113732;28;20047;-74
2023/09/29 10:38:22;;;;;;;0.30;0.30;;;21.60;99.90;;;;;;5113743;28;20364;-73
2023/09/29 10:40:48;;;;;;;0.45;0.38;;;21.60;99.90;;;;;;5114179;28;20040;-74
2023/09/29 10:43:17;;;;;;;0.20;0.20;;;21.50;99.90;;;;;;5117490;28;20127;-75
2023/09/29 10:45:44;;;;;;;0.85;0.85;;;21.50;99.90;;;;;;5117600;28;20487;-74
2023/09/29 10:48:10;;;;;;;0.50;0.50;;;21.50;99.90;;;;;;5117865;28;20047;-74
2023/09/29 10:50:40;;;;;;;0.30;0.30;;;21.40;99.90;;;;;;5117606;28;20086;-74
2023/09/29 10:53:07;;;;;;;0.30;0.30;;;21.30;99.90;;;;;;5117395;28;20036;-75
2023/09/29 10:55:36;;;;;;;0.40;0.30;;;21.30;99.90;;;;;;5117532;28;20084;-75
2023/09/29 10:58:03;;;;;;;0.50;0.50;;;21.20;99.90;;;;;;5117489;28;20039;-75
2023/09/29 11:00:29;;;;;;;0.30;0.30;;;21.20;99.90;;;;;;5117470;28;20154;-75
2023/09/29 11:02:55;;;;;;;0.60;0.60;;;21.20;99.90;;;;;;5117469;28;20075;-75
2023/09/29 11:05:21;;;;;;;1.83;0.73;;;21.20;99.90;;;;;;5117556;27;20782;-75
2023/09/29 11:07:51;;;;;;;0.43;0.43;;;21.20;99.90;;;;;;5117168;28;20459;-74
2023/09/29 11:10:18;;;;;;;0.25;0.25;;;21.20;99.90;;;;;;5117363;28;20114;-74
2023/09/29 11:12:48;;;;;;;0.47;0.47;;;21.20;99.90;;;;;;5116527;28;20370;-73
2023/09/29 11:15:15;;;;;;;0.40;0.40;;;21.20;99.90;;;;;;5117179;28;20122;-74
2023/09/29 11:17:50;;;;;;;0.28;0.28;;;21.20;99.90;;;;;;5117168;28;20059;-73
2023/09/29 11:20:35;;;;;;;0.20;0.20;;;21.20;99.90;;;;;;5117072;28;20126;-73
2023/09/29 11:23:08;;;;;;;0.65;0.52;;;21.30;99.90;;;;;;5116616;28;20046;-75
2023/09/29 11:25:47;;;;;;;0.30;0.30;;;21.30;99.90;;;;;;5116717;28;20088;-74
2023/09/29 11:28:13;;;;;;;0.40;0.40;;;21.40;99.90;;;;;;5117014;28;20383;-74
2023/09/29 11:30:39;;;;;;;0.20;0.20;;;21.40;99.90;;;;;;5116962;28;20082;-76
2023/09/29 11:33:06;;;;;;;0.75;0.70;;;21.40;99.90;;;;;;5115797;28;20032;-73
2023/09/29 11:35:32;;;;;;;0.38;0.38;;;21.50;99.90;;;;;;5116878;28;20044;-74
2023/09/29 11:37:58;;;;;;;0.50;0.47;;;21.50;99.90;;;;;;5116803;28;20497;-74
2023/09/29 11:40:23;;;;;;;0.40;0.40;;;21.60;99.90;;;;;;5116915;28;20044;-74
2023/09/29 11:42:49;;;;;;;3.13;0.93;;;21.60;99.90;;;;;;5116731;28;20043;-74
2023/09/29 11:45:15;;;;;;;0.30;0.30;;;21.70;99.90;;;;;;5116554;28;20195;-75
2023/09/29 11:47:44;;;;;;;0.57;0.57;;;21.70;99.90;;;;;;5116717;28;20092;-74
2023/09/29 11:50:10;;;;;;;0.50;0.50;;;21.70;99.90;;;;;;5116856;28;20343;-75
2023/09/29 11:52:41;;;;;;;0.50;0.50;;;21.80;99.90;;;;;;5115879;28;20506;-74
2023/09/29 11:55:11;;;;;;;0.52;0.40;;;21.80;99.90;;;;;;5116464;28;20032;-74
2023/09/29 11:57:40;;;;;;;0.38;0.38;;;21.90;99.90;;;;;;5116737;28;20040;-73
2023/09/29 12:00:08;;;;;;;0.30;0.30;;;22.00;99.90;;;;;;5115147;28;20096;-75
2023/09/29 12:02:34;;;;;;;0.20;0.20;;;22.10;99.90;;;;;;5116419;28;20036;-75
2023/09/29 12:05:00;;;;;;;0.30;0.30;;;22.20;99.90;;;;;;5116117;28;20039;-73
2023/09/29 12:07:26;;;;;;;0.30;0.30;;;22.10;99.90;;;;;;5116040;28;20081;-74
2023/09/29 12:09:52;;;;;;;;;;;22.10;99.90;;;;;;5116699;28;20027;-74
2023/09/29 12:12:18;;;;;;;0.30;0.30;;;22.10;99.90;;;;;;5116046;28;19922;-74
2023/09/29 12:14:44;;;;;;;0.30;0.30;;;22.10;99.90;;;;;;5115752;28;20047;-75
2023/09/29 12:17:09;;;;;;;0.23;0.23;;;22.10;99.90;;;;;;5116038;28;20486;-75
2023/09/29 12:19:35;;;;;;;1.00;0.30;;;22.10;99.90;;;;;;5116443;28;20096;-74
2023/09/29 12:22:01;;;;;;;0.20;0.20;;;22.00;99.90;;;;;;5115908;28;20081;-74
2023/09/29 12:24:27;;;;;;;0.20;0.20;;;22.00;99.90;;;;;;5115904;28;20048;-72
2023/09/29 12:26:52;;;;;;;0.40;0.40;;;22.00;99.90;;;;;;5115822;28;20047;-73
2023/09/29 12:29:18;;;;;;;0.40;0.40;;;21.90;99.90;;;;;;5115707;28;20040;-73
2023/09/29 12:31:43;;;;;;;0.47;0.40;;;21.80;99.90;;;;;;5115782;28;20122;-74
2023/09/29 12:34:09;;;;;;;0.20;0.20;;;21.80;99.90;;;;;;5115658;28;20031;-74
2023/09/29 12:36:35;;;;;;;0.20;0.20;;;21.70;99.90;;;;;;5115696;28;20074;-73
2023/09/29 12:39:03;;;;;;;0.22;0.22;;;21.50;99.90;;;;;;5115516;28;20118;-73
2023/09/29 12:41:29;;;;;;;0.30;0.30;;;21.50;99.90;;;;;;5115270;28;20479;-75
2023/09/29 12:43:55;;;;;;;0.20;0.20;;;21.40;99.90;;;;;;5115370;28;20031;-74
2023/09/29 12:46:21;;;;;;;0.30;0.30;;;21.30;99.90;;;;;;5115886;28;20039;-75
2023/09/29 12:48:47;;;;;;;0.30;0.30;;;21.20;99.90;;;;;;5115605;28;20040;-74